Terminal Aerodrome Forecast
Issued by NWS

Home | Current Version | Previous Version | Graphics & Text | Print | Product List | Glossary On
Versions: 1 2 3 4 5 6 7 8 9 10 11 12 13 14 15
747
FTUS43 KICT 201531 AAA
TAFCNU
TAF AMD
KCNU 201531Z 2016/2112 18018G25KT P6SM SCT250
     FM201800 19022G30KT P6SM BKN050
     FM202300 18012KT P6SM BKN040=

USA.gov is the U.S. government's official web portal to all federal, state and local government web resources and services.